Norwegian Epic — C6XP7 — position and weather

sailwx.info

Track history (hours):
 
Tides and Currents Weather Stations Pressure Air Temp Water Temp Dewpoint Dewpoint Depression Visibility Wind Speed Wind Dir Waves Ship Positions

Norwegian Epic

Last reported at 2017-Jul-22 16:29 UTC. Time now 2017-Jul-22 16:56 UTC.
Position N 39°33' E 002°38'.

Length 329 m; draft 8.8 m.

Type: Passenger vessel. MMSI: 311018500.

Date/timePositionNaut miles runAvg speedWind from/ knotsBaromVisibWave heightAir tempDewpointWater temp
2017-Jul-22 16:29N 39°33' E 002°38'0 0.0
2017-Jul-22 16:00N 39°33' E 002°38'0 0.0
2017-Jul-22 15:30N 39°33' E 002°38'0 0.0
2017-Jul-22 15:00N 39°33' E 002°38'0 0.0
2017-Jul-22 13:58N 39°33' E 002°38'0 0.0
2017-Jul-22 13:28N 39°33' E 002°38'0 0.0
2017-Jul-22 12:59N 39°33' E 002°38'0 0.0
2017-Jul-22 12:29N 39°33' E 002°38'0 0.0
2017-Jul-22 11:59N 39°33' E 002°38'0 0.0
2017-Jul-22 11:30N 39°33' E 002°38'0 0.0
2017-Jul-22 11:00N 39°33' E 002°38'0 0.3
2017-Jul-22 10:30N 39°33' E 002°38'2 4.6
2017-Jul-22 10:00N 39°31' E 002°38'917.0
2017-Jul-22 09:30N 39°25' E 002°31'918.0
2017-Jul-22 09:00N 39°29' E 002°20'917.5
2017-Jul-22 08:30N 39°37' E 002°15'1019.5
2017-Jul-22 08:00N 39°45' E 002°22'1019.5
2017-Jul-22 07:30N 39°51' E 002°31'1019.8
2017-Jul-22 07:00N 39°58' E 002°41'1019.8
2017-Jul-22 06:30N 40°05' E 002°50'1020.2
2017-Jul-22 06:00N 40°13' E 002°59'1020.2
2017-Jul-22 05:30N 40°20' E 003°08'1020.1
2017-Jul-22 05:00N 40°27' E 003°18'1019.8
2017-Jul-22 04:30N 40°34' E 003°27'1019.7
2017-Jul-22 04:00N 40°41' E 003°36'2219.4
2017-Jul-22 02:53N 40°57' E 003°56'719.6
2017-Jul-22 02:30N 41°02' E 004°03'1019.7
2017-Jul-22 02:00N 41°09' E 004°12'1019.7
2017-Jul-22 01:31N 41°16' E 004°21'1019.7
2017-Jul-22 01:00N 41°23' E 004°31'1019.6
2017-Jul-22 00:30N 41°30' E 004°40'1019.5
2017-Jul-22 00:00N 41°37' E 004°49'1019.6
2017-Jul-21 23:28N 41°44' E 004°59'919.8
2017-Jul-21 23:01N 41°51' E 005°07'1019.6
2017-Jul-21 22:31N 41°58' E 005°17'1019.7
2017-Jul-21 21:59N 42°05' E 005°26'1019.4
2017-Jul-21 21:27N 42°13' E 005°36'1219.3
2017-Jul-21 20:49N 42°21' E 005°48'7419.7
2017-Jul-21 17:03N 43°17' E 006°55'319.6
2017-Jul-21 16:53N 43°20' E 006°56'719.4
2017-Jul-21 16:30N 43°27' E 006°59'5 9.7
2017-Jul-21 16:00N 43°32' E 007°01'0 0.3
2017-Jul-21 15:30N 43°32' E 007°01'0 0.1
2017-Jul-21 15:00N 43°32' E 007°01'0 0.9
2017-Jul-21 14:30N 43°32' E 007°01'0 0.9
2017-Jul-21 14:00N 43°32' E 007°01'0 0.1
2017-Jul-21 13:29N 43°32' E 007°01'0 0.1
2017-Jul-21 13:00N 43°32' E 007°01'0 0.1
2017-Jul-21 12:29N 43°32' E 007°01'0 0.1
2017-Jul-21 11:58N 43°32' E 007°00'0 0.2
2017-Jul-21 11:29N 43°32' E 007°01'0 0.2
2017-Jul-21 10:58N 43°32' E 007°01'0 0.1
2017-Jul-21 10:30N 43°32' E 007°01'0 0.1
2017-Jul-21 10:00N 43°32' E 007°01'0 0.1
2017-Jul-21 09:30N 43°32' E 007°01'0 0.1
2017-Jul-21 09:00N 43°32' E 007°01'0 0.1
2017-Jul-21 08:30N 43°32' E 007°01'0 0.1
2017-Jul-21 08:00N 43°32' E 007°01'0 0.2
2017-Jul-21 07:30N 43°32' E 007°01'0 0.2
2017-Jul-21 07:00N 43°32' E 007°01'0 0.1
2017-Jul-21 06:30N 43°32' E 007°01'1 1.5
2017-Jul-21 06:00N 43°33' E 007°01'0 0.5
2017-Jul-21 05:30N 43°33' E 007°01'1 1.1
2017-Jul-21 05:00N 43°32' E 007°01'0 0.4
2017-Jul-21 04:31N 43°32' E 007°01'0 0.7
2017-Jul-21 04:00N 43°32' E 007°01'4 7.3
2017-Jul-21 03:30N 43°28' E 007°02'611.7
2017-Jul-21 03:00N 43°28' E 007°10'612.0
2017-Jul-21 02:31N 43°28' E 007°19'611.9
2017-Jul-21 02:01N 43°28' E 007°27'612.6
2017-Jul-21 01:31N 43°29' E 007°35'714.8
2017-Jul-21 01:01N 43°29' E 007°46'714.7
2017-Jul-21 00:30N 43°30' E 007°56'714.3
2017-Jul-21 00:00N 43°29' E 008°06'714.3
2017-Jul-20 23:31N 43°29' E 008°15'714.3
2017-Jul-20 23:01N 43°30' E 008°25'815.7
2017-Jul-20 22:30N 43°30' E 008°36'815.4
2017-Jul-20 22:00N 43°30' E 008°47'815.1
2017-Jul-20 21:30N 43°30' E 008°57'714.8
2017-Jul-20 21:01N 43°31' E 009°07'714.7
2017-Jul-20 20:31N 43°31' E 009°17'814.9
2017-Jul-20 20:00N 43°31' E 009°28'815.2
2017-Jul-20 19:30N 43°31' E 009°38'815.4
2017-Jul-20 19:00N 43°31' E 009°49'815.2
2017-Jul-20 18:31N 43°31' E 009°59'714.8
2017-Jul-20 18:01N 43°31' E 010°09'611.2
2017-Jul-20 17:30N 43°32' E 010°17'1 2.2
2017-Jul-20 16:58N 43°33' E 010°18'0 0.0
2017-Jul-20 16:28N 43°33' E 010°18'0 0.0
2017-Jul-20 15:59N 43°33' E 010°18'0 0.0
2017-Jul-20 15:29N 43°33' E 010°18'0 0.0
2017-Jul-20 14:56N 43°33' E 010°18'0 0.0
2017-Jul-20 13:57N 43°33' E 010°18'0 0.0
2017-Jul-20 13:30N 43°33' E 010°18'0 0.0
2017-Jul-20 12:58N 43°33' E 010°18'0 0.0
2017-Jul-20 12:28N 43°33' E 010°18'0 0.0
2017-Jul-20 11:58N 43°33' E 010°18'0 0.0
2017-Jul-20 11:29N 43°33' E 010°18'0 0.0
2017-Jul-20 10:59N 43°33' E 010°18'0 0.0
2017-Jul-20 10:29N 43°33' E 010°18'0 0.0
2017-Jul-20 10:00N 43°33' E 010°18'0 0.0
2017-Jul-20 09:30N 43°33' E 010°18'0 0.0
2017-Jul-20 09:00N 43°33' E 010°18'0 0.0
2017-Jul-20 08:28N 43°33' E 010°18'0 0.0
2017-Jul-20 07:55N 43°33' E 010°18'0 0.0
2017-Jul-20 07:25N 43°33' E 010°18'0 0.0
2017-Jul-20 06:59N 43°33' E 010°18'0 0.0
2017-Jul-20 06:29N 43°33' E 010°18'0 0.0
2017-Jul-20 05:59N 43°33' E 010°18'0 0.0
2017-Jul-20 05:27N 43°33' E 010°18'0 0.0
2017-Jul-20 05:00N 43°33' E 010°18'0 0.0
2017-Jul-20 04:30N 43°33' E 010°18'3 5.1
2017-Jul-20 04:00N 43°31' E 010°15'612.1
2017-Jul-20 03:30N 43°26' E 010°12'613.0
2017-Jul-20 03:00N 43°20' E 010°09'612.9
2017-Jul-20 02:30N 43°14' E 010°07'612.9
2017-Jul-20 02:00N 43°07' E 010°04'613.0
2017-Jul-20 01:30N 43°01' E 010°02'815.0
2017-Jul-20 01:00N 42°54' E 009°59'917.3
2017-Jul-20 00:30N 42°45' E 009°57'917.3
2017-Jul-20 00:00N 42°37' E 009°54'816.8
2017-Jul-19 23:30N 42°29' E 009°55'1116.8
2017-Jul-19 22:50N 42°17' E 009°57'716.7
2017-Jul-19 22:26N 42°14' E 010°05'717.0
2017-Jul-19 22:00N 42°11' E 010°14'816.8
2017-Jul-19 21:30N 42°08' E 010°25'816.6
2017-Jul-19 21:00N 42°06' E 010°35'816.5
2017-Jul-19 20:30N 42°03' E 010°46'816.5
2017-Jul-19 20:00N 41°60' E 010°56'916.3
2017-Jul-19 19:29N 41°57' E 011°07'816.5
2017-Jul-19 19:00N 41°60' E 011°17'22 1.4
2017-Jul-19 03:10N 42°07' E 011°45'2 7.8
2017-Jul-19 02:52N 42°05' E 011°43'1814.7
2017-Jul-19 01:36N 41°48' E 011°52'6817.7
2017-Jul-18 21:44N 40°52' E 012°43'418.4
2017-Jul-18 21:30N 40°49' E 012°47'918.3
2017-Jul-18 21:01N 40°46' E 012°59'918.4
2017-Jul-18 20:30N 40°43' E 013°10'918.3
2017-Jul-18 20:00N 40°40' E 013°22'918.2
2017-Jul-18 19:30N 40°39' E 013°34'918.3
2017-Jul-18 19:01N 40°38' E 013°46'918.2
2017-Jul-18 18:30N 40°39' E 013°58'917.0
2017-Jul-18 18:00N 40°42' E 014°08'917.0
2017-Jul-18 17:30N 40°48' E 014°16'3 4.9
2017-Jul-18 16:59N 40°50' E 014°16'0 0.0
2017-Jul-18 16:24N 40°50' E 014°16'0 0.0
2017-Jul-18 15:57N 40°50' E 014°16'0 0.0
2017-Jul-18 15:30N 40°50' E 014°16'0 0.0
2017-Jul-18 14:54N 40°50' E 014°16'0 0.0
2017-Jul-18 13:55N 40°50' E 014°16'0 0.0
2017-Jul-18 13:25N 40°50' E 014°16'0 0.0
2017-Jul-18 12:50N 40°50' E 014°16'0 0.0
2017-Jul-18 12:26N 40°50' E 014°16'0 0.0
2017-Jul-18 11:51N 40°50' E 014°16'0 0.0
2017-Jul-18 11:27N 40°50' E 014°16'0 0.0
2017-Jul-18 10:57N 40°50' E 014°16'0 0.0
2017-Jul-18 10:24N 40°50' E 014°16'0 0.0
2017-Jul-18 09:58N 40°50' E 014°16'0 0.0
2017-Jul-18 09:22N 40°50' E 014°16'0 0.0
2017-Jul-18 08:55N 40°50' E 014°16'0 0.0
2017-Jul-18 08:29N 40°50' E 014°16'0 0.0
2017-Jul-18 07:56N 40°50' E 014°16'0 0.0
2017-Jul-18 07:29N 40°50' E 014°16'0 0.0
2017-Jul-18 06:54N 40°50' E 014°16'0 0.0
2017-Jul-18 06:27N 40°50' E 014°16'0 0.0
2017-Jul-18 06:00N 40°50' E 014°16'85 9.5
2017-Jul-17 21:00N 40°44' E 012°23'917.7
2017-Jul-17 20:30N 40°47' E 012°12'917.7
2017-Jul-17 20:00N 40°49' E 012°01'1717.4
2017-Jul-17 19:01N 40°54' E 011°39'13216.2
2017-Jul-17 10:52N 41°17' E 008°47'3216.3
2017-Jul-17 08:53N 41°17' E 008°04'9416.4
2017-Jul-17 03:10N 41°16' E 005°59'416.6
2017-Jul-17 02:53N 41°16' E 005°53'2916.7
2017-Jul-17 01:10N 41°16' E 005°15'416.8
2017-Jul-17 00:55N 41°16' E 005°09'3017.2
2017-Jul-16 23:10N 41°16' E 004°30'517.5
2017-Jul-16 22:55N 41°16' E 004°24'1817.5
2017-Jul-16 21:55N 41°16' E 004°00'717.3
2017-Jul-16 21:30N 41°16' E 003°51'917.2
2017-Jul-16 21:00N 41°16' E 003°39'816.8
2017-Jul-16 20:30N 41°16' E 003°28'816.8
2017-Jul-16 20:00N 41°15' E 003°17'816.7
2017-Jul-16 19:30N 41°15' E 003°06'816.4
2017-Jul-16 19:00N 41°16' E 002°55'816.6
2017-Jul-16 18:30N 41°16' E 002°44'816.6
2017-Jul-16 18:01N 41°16' E 002°33'816.7
2017-Jul-16 17:30N 41°15' E 002°22'816.0
2017-Jul-16 17:00N 41°15' E 002°11'611.3
2017-Jul-16 16:30N 41°21' E 002°10'1 0.5
2017-Jul-16 14:40N 41°22' E 002°11'0 0.0
2017-Jul-16 02:54N 41°22' E 002°11'0 0.7
2017-Jul-16 02:30N 41°21' E 002°11'3 6.2
2017-Jul-16 02:01N 41°18' E 002°10'5 9.3
2017-Jul-16 01:30N 41°14' E 002°11'715.1
2017-Jul-16 01:00N 41°06' E 002°12'816.0
2017-Jul-16 00:30N 40°58' E 002°12'816.8
2017-Jul-16 00:01N 40°50' E 002°11'917.0
2017-Jul-15 23:30N 40°41' E 002°11'816.9
2017-Jul-15 23:00N 40°33' E 002°11'816.9
2017-Jul-15 22:30N 40°24' E 002°12'816.9
2017-Jul-15 22:00N 40°16' E 002°12'816.9
2017-Jul-15 21:30N 40°08' E 002°11'816.7
2017-Jul-15 21:00N 39°59' E 002°12'918.2
2017-Jul-15 20:30N 39°50' E 002°13'1019.7
2017-Jul-15 20:00N 39°40' E 002°13'918.7
2017-Jul-15 19:30N 39°31' E 002°16'1019.2
2017-Jul-15 19:00N 39°26' E 002°26'715.1
2017-Jul-15 18:30N 39°28' E 002°36'611.1
2017-Jul-15 18:00N 39°33' E 002°38'0 0.6
2017-Jul-15 17:29N 39°33' E 002°38'0 0.0
2017-Jul-15 16:59N 39°33' E 002°38'0 0.0
2017-Jul-15 16:29N 39°33' E 002°38'0 0.0
2017-Jul-15 16:00N 39°33' E 002°38'0 0.0
2017-Jul-15 15:30N 39°33' E 002°38'0 0.0
2017-Jul-15 15:00N 39°33' E 002°38'0 0.0
2017-Jul-15 13:58N 39°33' E 002°38'0 0.0
2017-Jul-15 13:28N 39°33' E 002°38'0 0.0
2017-Jul-15 12:59N 39°33' E 002°38'0 0.0
2017-Jul-15 12:29N 39°33' E 002°38'0 0.0
2017-Jul-15 11:59N 39°33' E 002°38'0 0.0
2017-Jul-15 11:30N 39°33' E 002°38'0 0.0
2017-Jul-15 10:51N 39°33' E 002°38'0 0.0
2017-Jul-15 10:30N 39°33' E 002°38'0 0.5
2017-Jul-15 10:00N 39°33' E 002°38'2 4.1
2017-Jul-15 09:30N 39°31' E 002°38'815.9
2017-Jul-15 09:00N 39°26' E 002°30'1019.3
2017-Jul-15 08:30N 39°30' E 002°19'31019.3
2017-Jul-14 16:23N 43°21' E 006°55'719.4
2017-Jul-14 16:00N 43°28' E 006°59'4 8.1
2017-Jul-14 15:31N 43°32' E 007°01'0 0.1
2017-Jul-14 14:58N 43°32' E 007°01'0 0.1
2017-Jul-14 14:28N 43°32' E 007°01'0 0.2
2017-Jul-14 13:56N 43°32' E 007°01'0 0.2
2017-Jul-14 13:28N 43°32' E 007°01'0 0.1
2017-Jul-14 12:59N 43°32' E 007°01'0 0.0
2017-Jul-14 12:29N 43°32' E 007°01'0 0.1
2017-Jul-14 11:59N 43°32' E 007°01'0 0.1
2017-Jul-14 11:27N 43°32' E 007°01'0 0.2
2017-Jul-14 11:00N 43°32' E 007°01'0 0.0
2017-Jul-14 10:30N 43°32' E 007°01'0 0.4
2017-Jul-14 09:58N 43°32' E 007°01'0 0.3
2017-Jul-14 09:23N 43°32' E 007°01'0 0.1
2017-Jul-14 08:58N 43°32' E 007°01'0 0.0
2017-Jul-14 08:29N 43°32' E 007°01'0 0.0
2017-Jul-14 07:59N 43°32' E 007°01'0 0.0
2017-Jul-14 07:29N 43°32' E 007°01'0 0.7
2017-Jul-14 06:59N 43°32' E 007°01'0 0.8
2017-Jul-14 06:30N 43°32' E 007°01'0 0.0
2017-Jul-14 06:00N 43°32' E 007°01'0 0.2
2017-Jul-14 05:29N 43°32' E 007°01'0 0.2
2017-Jul-14 04:58N 43°32' E 007°01'0 0.3
2017-Jul-14 04:30N 43°32' E 007°01'0 0.5
2017-Jul-14 04:01N 43°32' E 007°01'3 5.7
2017-Jul-14 03:30N 43°29' E 007°01'5 9.0
2017-Jul-14 03:00N 43°28' E 007°07'510.9
2017-Jul-14 02:30N 43°28' E 007°15'612.1
2017-Jul-14 02:00N 43°28' E 007°23'612.8
2017-Jul-14 01:30N 43°28' E 007°32'612.5
2017-Jul-14 01:00N 43°29' E 007°41'714.5
2017-Jul-14 00:30N 43°29' E 007°50'815.9
2017-Jul-14 00:00N 43°29' E 008°01'816.0
2017-Jul-13 23:30N 43°30' E 008°12'816.0
2017-Jul-13 23:00N 43°30' E 008°23'815.8
2017-Jul-13 22:30N 43°30' E 008°34'815.6
2017-Jul-13 22:00N 43°30' E 008°45'815.4
2017-Jul-13 21:30N 43°30' E 008°56'815.2
2017-Jul-13 21:00N 43°30' E 009°06'815.0
2017-Jul-13 20:30N 43°31' E 009°17'715.0
2017-Jul-13 20:00N 43°31' E 009°27'714.6
2017-Jul-13 19:30N 43°31' E 009°37'714.7
2017-Jul-13 19:00N 43°31' E 009°47'714.5
2017-Jul-13 18:30N 43°31' E 009°57'714.7
2017-Jul-13 18:00N 43°30' E 010°07'713.7
2017-Jul-13 17:30N 43°32' E 010°16'2 3.9
2017-Jul-13 17:00N 43°33' E 010°18'0 0.0
2017-Jul-13 16:28N 43°33' E 010°18'0 0.0
2017-Jul-13 15:58N 43°33' E 010°18'0 0.0
2017-Jul-13 15:28N 43°33' E 010°18'0 0.0
2017-Jul-13 14:56N 43°33' E 010°18'0 0.0
2017-Jul-13 14:29N 43°33' E 010°18'0 0.0
2017-Jul-13 13:59N 43°33' E 010°18'0 0.0
2017-Jul-13 13:30N 43°33' E 010°18'0 0.0
2017-Jul-13 13:00N 43°33' E 010°18'0 0.0
2017-Jul-13 12:30N 43°33' E 010°18'0 0.0
2017-Jul-13 11:58N 43°33' E 010°18'0 0.0
2017-Jul-13 11:28N 43°33' E 010°18'0 0.0
2017-Jul-13 10:58N 43°33' E 010°18'0 0.0
2017-Jul-13 10:29N 43°33' E 010°18'0 0.0
2017-Jul-13 09:59N 43°33' E 010°18'0 0.0
2017-Jul-13 09:29N 43°33' E 010°18'0 0.0
2017-Jul-13 09:00N 43°33' E 010°18'0 0.0
2017-Jul-13 08:30N 43°33' E 010°18'0 0.0
2017-Jul-13 07:57N 43°33' E 010°18'0 0.0
2017-Jul-13 07:28N 43°33' E 010°18'0 0.0
2017-Jul-13 06:58N 43°33' E 010°18'0 0.0
2017-Jul-13 06:28N 43°33' E 010°18'0 0.0
2017-Jul-13 05:59N 43°33' E 010°18'0 0.0
2017-Jul-13 05:26N 43°33' E 010°18'0 0.0
2017-Jul-13 05:00N 43°33' E 010°18'0 0.4
2017-Jul-13 04:30N 43°33' E 010°18'3 6.1
2017-Jul-13 04:00N 43°31' E 010°15'611.5
2017-Jul-13 03:30N 43°26' E 010°12'612.3
2017-Jul-13 03:00N 43°20' E 010°09'612.4
2017-Jul-13 02:30N 43°14' E 010°07'612.6
2017-Jul-13 02:00N 43°08' E 010°05'612.5
2017-Jul-13 01:30N 43°02' E 010°03'612.7
2017-Jul-13 01:00N 42°56' E 009°60'815.5
2017-Jul-13 00:31N 42°48' E 009°58'916.5
2017-Jul-12 23:59N 42°40' E 009°56'816.4
2017-Jul-12 23:31N 42°32' E 009°55'917.0
2017-Jul-12 23:01N 42°23' E 009°57'816.1
2017-Jul-12 22:31N 42°15' E 009°58'917.0
2017-Jul-12 22:00N 42°13' E 010°09'1116.9
2017-Jul-12 21:20N 42°09' E 010°23'617.0
2017-Jul-12 21:00N 42°07' E 010°30'1017.0
2017-Jul-12 20:26N 42°03' E 010°43'4715.3
2017-Jul-12 17:20N 42°06' E 011°46'1 1.5
2017-Jul-12 16:57N 42°06' E 011°47'  
Track history (hours):
 
Tides and Currents Weather Stations Pressure Air Temp Water Temp Dewpoint Dewpoint Depression Visibility Wind Speed Wind Dir Waves Ship Positions

Norwegian Epic

Last reported at 2017-Jul-22 16:29 UTC. Time now 2017-Jul-22 16:56 UTC.
Position N 39°33' E 002°38'.

Length 329 m; draft 8.8 m.

Type: Passenger vessel. MMSI: 311018500.

Date/timePositionNaut miles runAvg speedWind from/ knotsBaromVisibWave heightAir tempDewpointWater temp
2017-Jul-22 16:29N 39°33' E 002°38'0 0.0
2017-Jul-22 16:00N 39°33' E 002°38'0 0.0
2017-Jul-22 15:30N 39°33' E 002°38'0 0.0
2017-Jul-22 15:00N 39°33' E 002°38'0 0.0
2017-Jul-22 13:58N 39°33' E 002°38'0 0.0
2017-Jul-22 13:28N 39°33' E 002°38'0 0.0
2017-Jul-22 12:59N 39°33' E 002°38'0 0.0
2017-Jul-22 12:29N 39°33' E 002°38'0 0.0
2017-Jul-22 11:59N 39°33' E 002°38'0 0.0
2017-Jul-22 11:30N 39°33' E 002°38'0 0.0
2017-Jul-22 11:00N 39°33' E 002°38'0 0.3
2017-Jul-22 10:30N 39°33' E 002°38'2 4.6
2017-Jul-22 10:00N 39°31' E 002°38'917.0
2017-Jul-22 09:30N 39°25' E 002°31'918.0
2017-Jul-22 09:00N 39°29' E 002°20'917.5
2017-Jul-22 08:30N 39°37' E 002°15'1019.5
2017-Jul-22 08:00N 39°45' E 002°22'1019.5
2017-Jul-22 07:30N 39°51' E 002°31'1019.8
2017-Jul-22 07:00N 39°58' E 002°41'1019.8
2017-Jul-22 06:30N 40°05' E 002°50'1020.2
2017-Jul-22 06:00N 40°13' E 002°59'1020.2
2017-Jul-22 05:30N 40°20' E 003°08'1020.1
2017-Jul-22 05:00N 40°27' E 003°18'1019.8
2017-Jul-22 04:30N 40°34' E 003°27'1019.7
2017-Jul-22 04:00N 40°41' E 003°36'2219.4
2017-Jul-22 02:53N 40°57' E 003°56'719.6
2017-Jul-22 02:30N 41°02' E 004°03'1019.7
2017-Jul-22 02:00N 41°09' E 004°12'1019.7
2017-Jul-22 01:31N 41°16' E 004°21'1019.7
2017-Jul-22 01:00N 41°23' E 004°31'1019.6
2017-Jul-22 00:30N 41°30' E 004°40'1019.5
2017-Jul-22 00:00N 41°37' E 004°49'1019.6
2017-Jul-21 23:28N 41°44' E 004°59'919.8
2017-Jul-21 23:01N 41°51' E 005°07'1019.6
2017-Jul-21 22:31N 41°58' E 005°17'1019.7
2017-Jul-21 21:59N 42°05' E 005°26'1019.4
2017-Jul-21 21:27N 42°13' E 005°36'1219.3
2017-Jul-21 20:49N 42°21' E 005°48'7419.7
2017-Jul-21 17:03N 43°17' E 006°55'319.6
2017-Jul-21 16:53N 43°20' E 006°56'719.4
2017-Jul-21 16:30N 43°27' E 006°59'5 9.7
2017-Jul-21 16:00N 43°32' E 007°01'0 0.3
2017-Jul-21 15:30N 43°32' E 007°01'0 0.1
2017-Jul-21 15:00N 43°32' E 007°01'0 0.9
2017-Jul-21 14:30N 43°32' E 007°01'0 0.9
2017-Jul-21 14:00N 43°32' E 007°01'0 0.1
2017-Jul-21 13:29N 43°32' E 007°01'0 0.1
2017-Jul-21 13:00N 43°32' E 007°01'0 0.1
2017-Jul-21 12:29N 43°32' E 007°01'0 0.1
2017-Jul-21 11:58N 43°32' E 007°00'0 0.2
2017-Jul-21 11:29N 43°32' E 007°01'0 0.2
2017-Jul-21 10:58N 43°32' E 007°01'0 0.1
2017-Jul-21 10:30N 43°32' E 007°01'0 0.1
2017-Jul-21 10:00N 43°32' E 007°01'0 0.1
2017-Jul-21 09:30N 43°32' E 007°01'0 0.1
2017-Jul-21 09:00N 43°32' E 007°01'0 0.1
2017-Jul-21 08:30N 43°32' E 007°01'0 0.1
2017-Jul-21 08:00N 43°32' E 007°01'0 0.2
2017-Jul-21 07:30N 43°32' E 007°01'0 0.2
2017-Jul-21 07:00N 43°32' E 007°01'0 0.1
2017-Jul-21 06:30N 43°32' E 007°01'1 1.5
2017-Jul-21 06:00N 43°33' E 007°01'0 0.5
2017-Jul-21 05:30N 43°33' E 007°01'1 1.1
2017-Jul-21 05:00N 43°32' E 007°01'0 0.4
2017-Jul-21 04:31N 43°32' E 007°01'0 0.7
2017-Jul-21 04:00N 43°32' E 007°01'4 7.3
2017-Jul-21 03:30N 43°28' E 007°02'611.7
2017-Jul-21 03:00N 43°28' E 007°10'612.0
2017-Jul-21 02:31N 43°28' E 007°19'611.9
2017-Jul-21 02:01N 43°28' E 007°27'612.6
2017-Jul-21 01:31N 43°29' E 007°35'714.8
2017-Jul-21 01:01N 43°29' E 007°46'714.7
2017-Jul-21 00:30N 43°30' E 007°56'714.3
2017-Jul-21 00:00N 43°29' E 008°06'714.3
2017-Jul-20 23:31N 43°29' E 008°15'714.3
2017-Jul-20 23:01N 43°30' E 008°25'815.7
2017-Jul-20 22:30N 43°30' E 008°36'815.4
2017-Jul-20 22:00N 43°30' E 008°47'815.1
2017-Jul-20 21:30N 43°30' E 008°57'714.8
2017-Jul-20 21:01N 43°31' E 009°07'714.7
2017-Jul-20 20:31N 43°31' E 009°17'814.9
2017-Jul-20 20:00N 43°31' E 009°28'815.2
2017-Jul-20 19:30N 43°31' E 009°38'815.4
2017-Jul-20 19:00N 43°31' E 009°49'815.2
2017-Jul-20 18:31N 43°31' E 009°59'714.8
2017-Jul-20 18:01N 43°31' E 010°09'611.2
2017-Jul-20 17:30N 43°32' E 010°17'1 2.2
2017-Jul-20 16:58N 43°33' E 010°18'0 0.0
2017-Jul-20 16:28N 43°33' E 010°18'0 0.0
2017-Jul-20 15:59N 43°33' E 010°18'0 0.0
2017-Jul-20 15:29N 43°33' E 010°18'0 0.0
2017-Jul-20 14:56N 43°33' E 010°18'0 0.0
2017-Jul-20 13:57N 43°33' E 010°18'0 0.0
2017-Jul-20 13:30N 43°33' E 010°18'0 0.0
2017-Jul-20 12:58N 43°33' E 010°18'0 0.0
2017-Jul-20 12:28N 43°33' E 010°18'0 0.0
2017-Jul-20 11:58N 43°33' E 010°18'0 0.0
2017-Jul-20 11:29N 43°33' E 010°18'0 0.0
2017-Jul-20 10:59N 43°33' E 010°18'0 0.0
2017-Jul-20 10:29N 43°33' E 010°18'0 0.0
2017-Jul-20 10:00N 43°33' E 010°18'0 0.0
2017-Jul-20 09:30N 43°33' E 010°18'0 0.0
2017-Jul-20 09:00N 43°33' E 010°18'0 0.0
2017-Jul-20 08:28N 43°33' E 010°18'0 0.0
2017-Jul-20 07:55N 43°33' E 010°18'0 0.0
2017-Jul-20 07:25N 43°33' E 010°18'0 0.0
2017-Jul-20 06:59N 43°33' E 010°18'0 0.0
2017-Jul-20 06:29N 43°33' E 010°18'0 0.0
2017-Jul-20 05:59N 43°33' E 010°18'0 0.0
2017-Jul-20 05:27N 43°33' E 010°18'0 0.0
2017-Jul-20 05:00N 43°33' E 010°18'0 0.0
2017-Jul-20 04:30N 43°33' E 010°18'3 5.1
2017-Jul-20 04:00N 43°31' E 010°15'612.1
2017-Jul-20 03:30N 43°26' E 010°12'613.0
2017-Jul-20 03:00N 43°20' E 010°09'612.9
2017-Jul-20 02:30N 43°14' E 010°07'612.9
2017-Jul-20 02:00N 43°07' E 010°04'613.0
2017-Jul-20 01:30N 43°01' E 010°02'815.0
2017-Jul-20 01:00N 42°54' E 009°59'917.3
2017-Jul-20 00:30N 42°45' E 009°57'917.3
2017-Jul-20 00:00N 42°37' E 009°54'816.8
2017-Jul-19 23:30N 42°29' E 009°55'1116.8
2017-Jul-19 22:50N 42°17' E 009°57'716.7
2017-Jul-19 22:26N 42°14' E 010°05'717.0
2017-Jul-19 22:00N 42°11' E 010°14'816.8
2017-Jul-19 21:30N 42°08' E 010°25'816.6
2017-Jul-19 21:00N 42°06' E 010°35'816.5
2017-Jul-19 20:30N 42°03' E 010°46'816.5
2017-Jul-19 20:00N 41°60' E 010°56'916.3
2017-Jul-19 19:29N 41°57' E 011°07'816.5
2017-Jul-19 19:00N 41°60' E 011°17'22 1.4
2017-Jul-19 03:10N 42°07' E 011°45'2 7.8
2017-Jul-19 02:52N 42°05' E 011°43'1814.7
2017-Jul-19 01:36N 41°48' E 011°52'6817.7
2017-Jul-18 21:44N 40°52' E 012°43'418.4
2017-Jul-18 21:30N 40°49' E 012°47'918.3
2017-Jul-18 21:01N 40°46' E 012°59'918.4
2017-Jul-18 20:30N 40°43' E 013°10'918.3
2017-Jul-18 20:00N 40°40' E 013°22'918.2
2017-Jul-18 19:30N 40°39' E 013°34'918.3
2017-Jul-18 19:01N 40°38' E 013°46'918.2
2017-Jul-18 18:30N 40°39' E 013°58'917.0
2017-Jul-18 18:00N 40°42' E 014°08'917.0
2017-Jul-18 17:30N 40°48' E 014°16'3 4.9
2017-Jul-18 16:59N 40°50' E 014°16'0 0.0
2017-Jul-18 16:24N 40°50' E 014°16'0 0.0
2017-Jul-18 15:57N 40°50' E 014°16'0 0.0
2017-Jul-18 15:30N 40°50' E 014°16'0 0.0
2017-Jul-18 14:54N 40°50' E 014°16'0 0.0
2017-Jul-18 13:55N 40°50' E 014°16'0 0.0
2017-Jul-18 13:25N 40°50' E 014°16'0 0.0
2017-Jul-18 12:50N 40°50' E 014°16'0 0.0
2017-Jul-18 12:26N 40°50' E 014°16'0 0.0
2017-Jul-18 11:51N 40°50' E 014°16'0 0.0
2017-Jul-18 11:27N 40°50' E 014°16'0 0.0
2017-Jul-18 10:57N 40°50' E 014°16'0 0.0
2017-Jul-18 10:24N 40°50' E 014°16'0 0.0
2017-Jul-18 09:58N 40°50' E 014°16'0 0.0
2017-Jul-18 09:22N 40°50' E 014°16'0 0.0
2017-Jul-18 08:55N 40°50' E 014°16'0 0.0
2017-Jul-18 08:29N 40°50' E 014°16'0 0.0
2017-Jul-18 07:56N 40°50' E 014°16'0 0.0
2017-Jul-18 07:29N 40°50' E 014°16'0 0.0
2017-Jul-18 06:54N 40°50' E 014°16'0 0.0
2017-Jul-18 06:27N 40°50' E 014°16'0 0.0
2017-Jul-18 06:00N 40°50' E 014°16'85 9.5
2017-Jul-17 21:00N 40°44' E 012°23'917.7
2017-Jul-17 20:30N 40°47' E 012°12'917.7
2017-Jul-17 20:00N 40°49' E 012°01'1717.4
2017-Jul-17 19:01N 40°54' E 011°39'13216.2
2017-Jul-17 10:52N 41°17' E 008°47'3216.3
2017-Jul-17 08:53N 41°17' E 008°04'9416.4
2017-Jul-17 03:10N 41°16' E 005°59'416.6
2017-Jul-17 02:53N 41°16' E 005°53'2916.7
2017-Jul-17 01:10N 41°16' E 005°15'416.8
2017-Jul-17 00:55N 41°16' E 005°09'3017.2
2017-Jul-16 23:10N 41°16' E 004°30'517.5
2017-Jul-16 22:55N 41°16' E 004°24'1817.5
2017-Jul-16 21:55N 41°16' E 004°00'717.3
2017-Jul-16 21:30N 41°16' E 003°51'917.2
2017-Jul-16 21:00N 41°16' E 003°39'816.8
2017-Jul-16 20:30N 41°16' E 003°28'816.8
2017-Jul-16 20:00N 41°15' E 003°17'816.7
2017-Jul-16 19:30N 41°15' E 003°06'816.4
2017-Jul-16 19:00N 41°16' E 002°55'816.6
2017-Jul-16 18:30N 41°16' E 002°44'816.6
2017-Jul-16 18:01N 41°16' E 002°33'816.7
2017-Jul-16 17:30N 41°15' E 002°22'816.0
2017-Jul-16 17:00N 41°15' E 002°11'611.3
2017-Jul-16 16:30N 41°21' E 002°10'1 0.5
2017-Jul-16 14:40N 41°22' E 002°11'0 0.0
2017-Jul-16 02:54N 41°22' E 002°11'0 0.7
2017-Jul-16 02:30N 41°21' E 002°11'3 6.2
2017-Jul-16 02:01N 41°18' E 002°10'5 9.3
2017-Jul-16 01:30N 41°14' E 002°11'715.1
2017-Jul-16 01:00N 41°06' E 002°12'816.0
2017-Jul-16 00:30N 40°58' E 002°12'816.8
2017-Jul-16 00:01N 40°50' E 002°11'917.0
2017-Jul-15 23:30N 40°41' E 002°11'816.9
2017-Jul-15 23:00N 40°33' E 002°11'816.9
2017-Jul-15 22:30N 40°24' E 002°12'816.9
2017-Jul-15 22:00N 40°16' E 002°12'816.9
2017-Jul-15 21:30N 40°08' E 002°11'816.7
2017-Jul-15 21:00N 39°59' E 002°12'918.2
2017-Jul-15 20:30N 39°50' E 002°13'1019.7
2017-Jul-15 20:00N 39°40' E 002°13'918.7
2017-Jul-15 19:30N 39°31' E 002°16'1019.2
2017-Jul-15 19:00N 39°26' E 002°26'715.1
2017-Jul-15 18:30N 39°28' E 002°36'611.1
2017-Jul-15 18:00N 39°33' E 002°38'0 0.6
2017-Jul-15 17:29N 39°33' E 002°38'0 0.0
2017-Jul-15 16:59N 39°33' E 002°38'0 0.0
2017-Jul-15 16:29N 39°33' E 002°38'0 0.0
2017-Jul-15 16:00N 39°33' E 002°38'0 0.0
2017-Jul-15 15:30N 39°33' E 002°38'0 0.0
2017-Jul-15 15:00N 39°33' E 002°38'0 0.0
2017-Jul-15 13:58N 39°33' E 002°38'0 0.0
2017-Jul-15 13:28N 39°33' E 002°38'0 0.0
2017-Jul-15 12:59N 39°33' E 002°38'0 0.0
2017-Jul-15 12:29N 39°33' E 002°38'0 0.0
2017-Jul-15 11:59N 39°33' E 002°38'0 0.0
2017-Jul-15 11:30N 39°33' E 002°38'0 0.0
2017-Jul-15 10:51N 39°33' E 002°38'0 0.0
2017-Jul-15 10:30N 39°33' E 002°38'0 0.5
2017-Jul-15 10:00N 39°33' E 002°38'2 4.1
2017-Jul-15 09:30N 39°31' E 002°38'815.9
2017-Jul-15 09:00N 39°26' E 002°30'1019.3
2017-Jul-15 08:30N 39°30' E 002°19'31019.3
2017-Jul-14 16:23N 43°21' E 006°55'719.4
2017-Jul-14 16:00N 43°28' E 006°59'4 8.1
2017-Jul-14 15:31N 43°32' E 007°01'0 0.1
2017-Jul-14 14:58N 43°32' E 007°01'0 0.1
2017-Jul-14 14:28N 43°32' E 007°01'0 0.2
2017-Jul-14 13:56N 43°32' E 007°01'0 0.2
2017-Jul-14 13:28N 43°32' E 007°01'0 0.1
2017-Jul-14 12:59N 43°32' E 007°01'0 0.0
2017-Jul-14 12:29N 43°32' E 007°01'0 0.1
2017-Jul-14 11:59N 43°32' E 007°01'0 0.1
2017-Jul-14 11:27N 43°32' E 007°01'0 0.2
2017-Jul-14 11:00N 43°32' E 007°01'0 0.0
2017-Jul-14 10:30N 43°32' E 007°01'0 0.4
2017-Jul-14 09:58N 43°32' E 007°01'0 0.3
2017-Jul-14 09:23N 43°32' E 007°01'0 0.1
2017-Jul-14 08:58N 43°32' E 007°01'0 0.0
2017-Jul-14 08:29N 43°32' E 007°01'0 0.0
2017-Jul-14 07:59N 43°32' E 007°01'0 0.0
2017-Jul-14 07:29N 43°32' E 007°01'0 0.7
2017-Jul-14 06:59N 43°32' E 007°01'0 0.8
2017-Jul-14 06:30N 43°32' E 007°01'0 0.0
2017-Jul-14 06:00N 43°32' E 007°01'0 0.2
2017-Jul-14 05:29N 43°32' E 007°01'0 0.2
2017-Jul-14 04:58N 43°32' E 007°01'0 0.3
2017-Jul-14 04:30N 43°32' E 007°01'0 0.5
2017-Jul-14 04:01N 43°32' E 007°01'3 5.7
2017-Jul-14 03:30N 43°29' E 007°01'5 9.0
2017-Jul-14 03:00N 43°28' E 007°07'510.9
2017-Jul-14 02:30N 43°28' E 007°15'612.1
2017-Jul-14 02:00N 43°28' E 007°23'612.8
2017-Jul-14 01:30N 43°28' E 007°32'612.5
2017-Jul-14 01:00N 43°29' E 007°41'714.5
2017-Jul-14 00:30N 43°29' E 007°50'815.9
2017-Jul-14 00:00N 43°29' E 008°01'816.0
2017-Jul-13 23:30N 43°30' E 008°12'816.0
2017-Jul-13 23:00N 43°30' E 008°23'815.8
2017-Jul-13 22:30N 43°30' E 008°34'815.6
2017-Jul-13 22:00N 43°30' E 008°45'815.4
2017-Jul-13 21:30N 43°30' E 008°56'815.2
2017-Jul-13 21:00N 43°30' E 009°06'815.0
2017-Jul-13 20:30N 43°31' E 009°17'715.0
2017-Jul-13 20:00N 43°31' E 009°27'714.6
2017-Jul-13 19:30N 43°31' E 009°37'714.7
2017-Jul-13 19:00N 43°31' E 009°47'714.5
2017-Jul-13 18:30N 43°31' E 009°57'714.7
2017-Jul-13 18:00N 43°30' E 010°07'713.7
2017-Jul-13 17:30N 43°32' E 010°16'2 3.9
2017-Jul-13 17:00N 43°33' E 010°18'0 0.0
2017-Jul-13 16:28N 43°33' E 010°18'0 0.0
2017-Jul-13 15:58N 43°33' E 010°18'0 0.0
2017-Jul-13 15:28N 43°33' E 010°18'0 0.0
2017-Jul-13 14:56N 43°33' E 010°18'0 0.0
2017-Jul-13 14:29N 43°33' E 010°18'0 0.0
2017-Jul-13 13:59N 43°33' E 010°18'0 0.0
2017-Jul-13 13:30N 43°33' E 010°18'0 0.0
2017-Jul-13 13:00N 43°33' E 010°18'0 0.0
2017-Jul-13 12:30N 43°33' E 010°18'0 0.0
2017-Jul-13 11:58N 43°33' E 010°18'0 0.0
2017-Jul-13 11:28N 43°33' E 010°18'0 0.0
2017-Jul-13 10:58N 43°33' E 010°18'0 0.0
2017-Jul-13 10:29N 43°33' E 010°18'0 0.0
2017-Jul-13 09:59N 43°33' E 010°18'0 0.0
2017-Jul-13 09:29N 43°33' E 010°18'0 0.0
2017-Jul-13 09:00N 43°33' E 010°18'0 0.0
2017-Jul-13 08:30N 43°33' E 010°18'0 0.0
2017-Jul-13 07:57N 43°33' E 010°18'0 0.0
2017-Jul-13 07:28N 43°33' E 010°18'0 0.0
2017-Jul-13 06:58N 43°33' E 010°18'0 0.0
2017-Jul-13 06:28N 43°33' E 010°18'0 0.0
2017-Jul-13 05:59N 43°33' E 010°18'0 0.0
2017-Jul-13 05:26N 43°33' E 010°18'0 0.0
2017-Jul-13 05:00N 43°33' E 010°18'0 0.4
2017-Jul-13 04:30N 43°33' E 010°18'3 6.1
2017-Jul-13 04:00N 43°31' E 010°15'611.5
2017-Jul-13 03:30N 43°26' E 010°12'612.3
2017-Jul-13 03:00N 43°20' E 010°09'612.4
2017-Jul-13 02:30N 43°14' E 010°07'612.6
2017-Jul-13 02:00N 43°08' E 010°05'612.5
2017-Jul-13 01:30N 43°02' E 010°03'612.7
2017-Jul-13 01:00N 42°56' E 009°60'815.5
2017-Jul-13 00:31N 42°48' E 009°58'916.5
2017-Jul-12 23:59N 42°40' E 009°56'816.4
2017-Jul-12 23:31N 42°32' E 009°55'917.0
2017-Jul-12 23:01N 42°23' E 009°57'816.1
2017-Jul-12 22:31N 42°15' E 009°58'917.0
2017-Jul-12 22:00N 42°13' E 010°09'1116.9
2017-Jul-12 21:20N 42°09' E 010°23'617.0
2017-Jul-12 21:00N 42°07' E 010°30'1017.0
2017-Jul-12 20:26N 42°03' E 010°43'4715.3
2017-Jul-12 17:20N 42°06' E 011°46'1 1.5
2017-Jul-12 16:57N 42°06' E 011°47'  

Dump ship's entire track history